Time;durP1;ratioP1;P1;durP2;ratioP2;P2;SDS_P1;SDS_P2;PMS_P1;PMS_P2;Temp;Humidity;BMP_temperature;BMP_pressure;BME280_temperature;BME280_humidity;BME280_pressure;Samples;Min_cycle;Max_cycle;Signal;HPM_P1;HPM_P2
2021/08/19 00:02:05;;;;;;;12.32;8.32;;;;;;;14.67;100.00;101255.78;2617058;36;20050;-64
2021/08/19 00:04:33;;;;;;;12.68;8.77;;;;;;;14.66;100.00;101247.78;2617515;36;20026;-64
2021/08/19 00:07:05;;;;;;;12.57;8.95;;;;;;;14.55;100.00;101241.56;2617383;36;20073;-65
2021/08/19 00:09:33;;;;;;;12.00;10.18;;;;;;;14.57;100.00;101238.69;2616416;36;20038;-64
2021/08/19 00:12:02;;;;;;;17.75;9.52;;;;;;;14.51;100.00;101240.16;2617960;31;20546;-64
2021/08/19 00:14:30;;;;;;;13.68;9.77;;;;;;;14.46;100.00;101231.66;2616965;36;20097;-64
2021/08/19 00:16:58;;;;;;;15.00;10.32;;;;;;;14.42;100.00;101232.94;2617086;36;20130;-64
2021/08/19 00:19:26;;;;;;;12.70;9.30;;;;;;;14.43;100.00;101236.50;2616715;36;20665;-65
2021/08/19 00:21:55;;;;;;;17.67;9.73;;;;;;;14.37;100.00;101233.41;2617010;36;20638;-65
2021/08/19 00:24:26;;;;;;;12.60;10.25;;;;;;;14.37;100.00;101228.00;2616147;36;20023;-65
2021/08/19 00:26:54;;;;;;;13.90;10.35;;;;;;;14.30;100.00;101232.31;2617008;36;20053;-64
2021/08/19 00:29:22;;;;;;;16.42;10.73;;;;;;;14.29;100.00;101222.47;2616955;36;20589;-65
2021/08/19 00:31:50;;;;;;;13.52;10.00;;;;;;;14.32;100.00;101232.16;2617255;36;20084;-65
2021/08/19 00:34:19;;;;;;;16.73;11.00;;;;;;;14.29;100.00;101232.47;2616551;36;20149;-64
2021/08/19 00:36:47;;;;;;;13.80;11.35;;;;;;;14.20;100.00;101236.94;2617193;36;20074;-65
2021/08/19 00:39:15;;;;;;;16.25;10.85;;;;;;;14.15;100.00;101223.84;2616823;36;20069;-65
2021/08/19 00:41:46;;;;;;;17.90;10.57;;;;;;;14.18;100.00;101233.53;2616660;36;20073;-64
2021/08/19 00:44:15;;;;;;;12.55;9.88;;;;;;;14.24;100.00;101241.03;2616178;31;20118;-64
2021/08/19 00:46:43;;;;;;;14.98;10.95;;;;;;;14.23;100.00;101224.97;2617161;31;20577;-65
2021/08/19 00:49:13;;;;;;;20.25;11.95;;;;;;;14.22;100.00;101221.38;2616306;36;20065;-65
2021/08/19 00:51:43;;;;;;;14.57;11.50;;;;;;;14.25;100.00;101229.22;2616849;36;20122;-64
2021/08/19 00:54:13;;;;;;;20.88;12.05;;;;;;;14.27;100.00;101231.78;2616609;36;20062;-65
2021/08/19 00:56:43;;;;;;;18.00;11.38;;;;;;;14.30;100.00;101232.31;2616985;36;20031;-65
2021/08/19 00:59:14;;;;;;;15.02;12.38;;;;;;;14.35;100.00;101232.72;2617029;31;20050;-65
2021/08/19 01:01:43;;;;;;;18.67;12.60;;;;;;;14.39;100.00;101229.72;2617384;31;20501;-65
2021/08/19 01:04:11;;;;;;;17.05;11.80;;;;;;;14.39;100.00;101225.13;2615820;36;20118;-64
2021/08/19 01:06:41;;;;;;;16.15;12.15;;;;;;;14.48;100.00;101228.78;2616837;36;20121;-64
2021/08/19 01:09:10;;;;;;;14.27;11.63;;;;;;;14.55;100.00;101224.47;2615964;36;20030;-64
2021/08/19 01:11:41;;;;;;;16.27;12.68;;;;;;;14.55;100.00;101216.34;2616667;36;20114;-64
2021/08/19 01:14:10;;;;;;;18.75;13.40;;;;;;;14.51;100.00;101215.78;2616404;36;21075;-64
2021/08/19 01:16:42;;;;;;;20.52;12.57;;;;;;;14.56;100.00;101215.34;2617009;36;20122;-65
2021/08/19 01:19:13;;;;;;;23.50;12.75;;;;;;;14.58;100.00;101215.19;2616536;36;20074;-65
2021/08/19 01:21:41;;;;;;;18.75;11.77;;;;;;;14.60;100.00;101213.16;2617047;36;20162;-65
2021/08/19 01:24:10;;;;;;;17.30;12.53;;;;;;;14.60;100.00;101211.28;2615854;36;20022;-64
2021/08/19 01:26:39;;;;;;;15.03;12.27;;;;;;;14.60;100.00;101211.28;2616869;36;20158;-64
2021/08/19 01:29:10;;;;;;;18.20;12.45;;;;;;;14.71;100.00;101213.81;2616944;36;20284;-64
2021/08/19 01:31:39;;;;;;;14.90;12.23;;;;;;;14.75;100.00;101216.22;2617092;36;20121;-64
2021/08/19 01:34:08;;;;;;;17.85;11.90;;;;;;;14.79;100.00;101220.31;2616119;31;20030;-64
2021/08/19 01:36:36;;;;;;;15.88;12.00;;;;;;;14.86;100.00;101216.00;2615757;36;20110;-65
2021/08/19 01:39:04;;;;;;;13.23;11.07;;;;;;;14.88;100.00;101224.81;2616141;36;20122;-64
2021/08/19 01:41:33;;;;;;;19.33;11.18;;;;;;;14.88;100.00;101224.81;2616287;36;20085;-64
2021/08/19 01:44:01;;;;;;;15.30;11.68;;;;;;;14.87;100.00;101223.13;2616246;31;20030;-64
2021/08/19 01:46:32;;;;;;;15.10;12.02;;;;;;;14.87;100.00;101221.25;2615287;36;20118;-65
2021/08/19 01:49:02;;;;;;;13.55;11.93;;;;;;;14.95;100.00;101228.59;2616003;36;20118;-64
2021/08/19 01:51:30;;;;;;;16.33;11.32;;;;;;;14.88;100.00;101219.38;2615881;36;20042;-64
2021/08/19 01:53:58;;;;;;;17.08;12.70;;;;;;;14.88;100.00;101217.56;2616224;31;20111;-64
2021/08/19 01:56:27;;;;;;;17.58;12.52;;;;;;;14.94;100.00;101213.34;2616037;31;20122;-64
2021/08/19 01:58:57;;;;;;;16.83;12.23;;;;;;;14.86;100.00;101211.41;2616089;36;20035;-64
2021/08/19 02:03:54;;;;;;;15.93;12.15;;;;;;;14.95;100.00;101209.63;2614484;36;20038;-65
2021/08/19 02:06:22;;;;;;;15.60;11.65;;;;;;;14.92;100.00;101209.94;2615477;36;20034;-65
2021/08/19 02:08:51;;;;;;;15.65;11.82;;;;;;;14.90;100.00;101211.97;2616056;31;20151;-64
2021/08/19 02:11:20;;;;;;;15.35;12.50;;;;;;;14.84;100.00;101207.16;2616855;36;20077;-64
2021/08/19 02:13:48;;;;;;;;;;;;;;;14.87;100.00;101212.28;2614611;36;20045;-64
2021/08/19 02:16:17;;;;;;;13.30;10.38;;;;;;;14.90;100.00;101211.97;2615212;36;20530;-64
2021/08/19 02:18:45;;;;;;;16.85;12.70;;;;;;;14.85;100.00;101206.16;2616314;32;20030;-65
2021/08/19 02:21:16;;;;;;;17.23;12.43;;;;;;;14.86;100.00;101206.00;2615092;36;20034;-65
2021/08/19 02:23:44;;;;;;;15.77;12.88;;;;;;;14.89;100.00;101205.69;2616476;31;20113;-65
2021/08/19 02:26:12;;;;;;;16.08;12.68;;;;;;;14.94;100.00;101202.50;2616070;36;20034;-64
2021/08/19 02:28:41;;;;;;;19.38;12.95;;;;;;;14.95;100.00;101215.06;2616464;36;20067;-64
2021/08/19 02:31:09;;;;;;;15.40;12.63;;;;;;;14.89;100.00;101211.09;2615749;36;20027;-65
2021/08/19 02:33:37;;;;;;;17.35;12.55;;;;;;;14.94;100.00;101207.91;2616297;31;20618;-64
2021/08/19 02:36:06;;;;;;;15.85;11.40;;;;;;;14.93;100.00;101203.53;2616157;36;20047;-65
2021/08/19 02:38:37;;;;;;;19.38;12.27;;;;;;;14.90;100.00;101201.13;2618027;31;20478;-65
2021/08/19 02:41:05;;;;;;;17.60;12.77;;;;;;;14.89;100.00;101199.41;2616895;36;20106;-64
2021/08/19 02:43:38;;;;;;;19.45;13.23;;;;;;;14.93;100.00;101195.41;2615483;36;20146;-64
2021/08/19 02:46:06;;;;;;;15.13;12.88;;;;;;;14.95;100.00;101189.81;2615944;36;20808;-64
2021/08/19 02:48:34;;;;;;;18.23;13.87;;;;;;;15.04;100.00;101189.72;2617523;36;20597;-64
2021/08/19 02:51:03;;;;;;;17.15;13.30;;;;;;;15.04;100.00;101187.00;2617475;31;20764;-65
2021/08/19 02:53:31;;;;;;;17.20;13.75;;;;;;;15.09;100.00;101188.38;2615934;36;20229;-64
2021/08/19 02:56:02;;;;;;;16.13;13.30;;;;;;;14.99;100.00;101183.91;2616605;36;20045;-65
2021/08/19 02:58:30;;;;;;;17.85;13.70;;;;;;;15.04;100.00;101187.00;2617230;36;20326;-64
2021/08/19 03:00:59;;;;;;;18.15;14.15;;;;;;;14.96;100.00;101186.94;2616724;36;20654;-64
2021/08/19 03:03:27;;;;;;;19.10;15.10;;;;;;;15.03;100.00;101179.03;2616416;31;20523;-65
2021/08/19 03:05:55;;;;;;;17.95;14.35;;;;;;;15.02;100.00;101178.19;2615756;36;20065;-64
2021/08/19 03:08:23;;;;;;;20.73;15.32;;;;;;;15.03;100.00;101179.88;2616598;36;20154;-65
2021/08/19 03:10:51;;;;;;;23.67;15.05;;;;;;;14.98;100.00;101171.38;2617415;36;20066;-64
2021/08/19 03:13:22;;;;;;;19.00;14.63;;;;;;;15.04;100.00;101170.72;2617011;31;20121;-64
2021/08/19 03:15:50;;;;;;;18.77;14.10;;;;;;;15.03;100.00;101174.47;2615239;36;20035;-65
2021/08/19 03:18:19;;;;;;;21.75;15.63;;;;;;;15.01;100.00;101171.03;2617145;31;20531;-65
2021/08/19 03:20:47;;;;;;;25.80;17.58;;;;;;;15.08;100.00;101179.41;2616557;36;20173;-64
2021/08/19 03:23:15;;;;;;;22.45;15.38;;;;;;;15.04;100.00;101178.84;2616143;36;20022;-65
2021/08/19 03:25:43;;;;;;;22.63;16.75;;;;;;;15.04;100.00;101175.31;2616535;31;20030;-64
2021/08/19 03:28:13;;;;;;;24.35;16.67;;;;;;;15.04;100.00;101181.56;2616965;36;20054;-65
2021/08/19 03:30:44;;;;;;;23.40;17.23;;;;;;;15.06;100.00;101185.00;2616513;36;20031;-64
2021/08/19 03:33:12;;;;;;;24.10;18.00;;;;;;;15.12;100.00;101182.66;2616222;36;20558;-65
2021/08/19 03:35:40;;;;;;;24.60;17.67;;;;;;;15.07;100.00;101178.56;2615958;31;20523;-64
2021/08/19 03:38:09;;;;;;;22.80;16.25;;;;;;;15.09;100.00;101180.25;2616654;31;20034;-65
2021/08/19 03:40:37;;;;;;;26.52;18.75;;;;;;;15.09;100.00;101180.25;2614578;36;20038;-62
2021/08/19 03:43:06;;;;;;;26.13;18.83;;;;;;;15.16;100.00;101173.19;2616170;36;20030;-62
2021/08/19 03:45:34;;;;;;;26.10;18.87;;;;;;;15.19;100.00;101172.88;2615564;36;20524;-62
2021/08/19 03:48:05;;;;;;;29.08;20.13;;;;;;;15.23;100.00;101175.09;2616623;36;20055;-63
2021/08/19 03:50:34;;;;;;;26.05;18.27;;;;;;;15.29;100.00;101173.63;2615959;36;20162;-63
2021/08/19 03:53:02;;;;;;;;;;;;;;;15.26;100.00;101170.38;2616377;36;20057;-64
2021/08/19 03:55:31;;;;;;;28.02;19.63;;;;;;;15.25;100.00;101174.94;2617189;36;19946;-63
2021/08/19 03:57:59;;;;;;;27.27;20.10;;;;;;;15.25;100.00;101172.22;2616687;36;20042;-64
2021/08/19 04:00:27;;;;;;;29.33;19.80;;;;;;;15.28;100.00;101169.19;2616849;31;20096;-63
2021/08/19 04:02:55;;;;;;;26.85;18.85;;;;;;;15.29;100.00;101168.19;2615442;36;20121;-64
2021/08/19 04:05:26;;;;;;;25.73;18.40;;;;;;;15.38;100.00;101166.38;2615412;36;20030;-64
2021/08/19 04:07:55;;;;;;;31.63;21.17;;;;;;;15.36;100.00;101169.25;2615821;36;20110;-64
2021/08/19 04:10:23;;;;;;;28.52;19.67;;;;;;;15.36;100.00;101168.41;2615788;36;20122;-64
2021/08/19 04:12:51;;;;;;;26.77;19.63;;;;;;;15.39;100.00;101174.38;2616353;36;20077;-64
2021/08/19 04:15:19;;;;;;;25.45;19.48;;;;;;;15.39;100.00;101174.38;2616245;36;20130;-64
2021/08/19 04:17:48;;;;;;;28.13;20.80;;;;;;;15.44;100.00;101178.47;2615677;36;20027;-63
2021/08/19 04:20:16;;;;;;;30.92;20.60;;;;;;;15.49;100.00;101174.25;2616685;31;20118;-64
2021/08/19 04:22:47;;;;;;;28.60;20.48;;;;;;;15.50;100.00;101180.53;2616203;36;20121;-63
2021/08/19 04:25:15;;;;;;;31.67;22.45;;;;;;;15.46;100.00;101182.72;2615620;36;20110;-63
2021/08/19 04:27:44;;;;;;;30.05;21.42;;;;;;;15.51;100.00;101183.09;2616601;36;20026;-65
2021/08/19 04:30:13;;;;;;;31.70;21.55;;;;;;;15.54;100.00;101176.50;2617228;31;20512;-64
2021/08/19 04:32:41;;;;;;;28.48;20.30;;;;;;;15.54;100.00;101176.50;2616619;31;20081;-63
2021/08/19 04:35:11;;;;;;;29.77;21.87;;;;;;;15.56;100.00;101174.44;2615840;36;20046;-64
2021/08/19 04:37:39;;;;;;;31.30;22.45;;;;;;;15.57;100.00;101184.31;2616266;36;20031;-64
2021/08/19 04:42:39;;;;;;;40.38;22.38;;;;;;;15.63;100.00;101180.94;2616285;36;20499;-64
2021/08/19 04:45:08;;;;;;;30.92;21.95;;;;;;;15.60;100.00;101183.97;2616472;36;20197;-63
2021/08/19 04:47:37;;;;;;;30.30;21.45;;;;;;;15.59;100.00;101179.56;2615741;36;20038;-63
2021/08/19 04:50:06;;;;;;;32.10;22.55;;;;;;;15.60;100.00;101181.25;2616607;31;20599;-63
2021/08/19 04:52:34;;;;;;;31.50;22.17;;;;;;;15.58;100.00;101176.00;2616559;36;20531;-63
2021/08/19 04:55:02;;;;;;;32.42;21.38;;;;;;;15.65;100.00;101176.22;2615647;36;20073;-64
2021/08/19 04:57:31;;;;;;;30.70;22.13;;;;;;;15.63;100.00;101177.38;2616179;36;20046;-64
2021/08/19 05:00:01;;;;;;;31.00;21.90;;;;;;;15.64;100.00;101176.38;2616481;36;20528;-64
2021/08/19 05:02:30;;;;;;;30.67;20.67;;;;;;;15.65;100.00;101181.66;2616172;36;20153;-63
2021/08/19 05:04:58;;;;;;;34.60;21.17;;;;;;;15.67;100.00;101174.19;2615950;36;20061;-66
2021/08/19 05:07:27;;;;;;;30.50;20.58;;;;;;;15.71;100.00;101172.00;2615970;36;20150;-64
2021/08/19 05:09:55;;;;;;;32.58;21.00;;;;;;;15.75;100.00;101178.78;2615890;36;20557;-64
2021/08/19 05:12:23;;;;;;;30.77;20.40;;;;;;;15.76;100.00;101170.50;2616107;36;20048;-63
2021/08/19 05:14:51;;;;;;;29.85;21.20;;;;;;;15.82;100.00;101173.63;2616039;36;20110;-64
2021/08/19 05:17:22;;;;;;;31.02;21.38;;;;;;;15.82;100.00;101179.88;2615947;36;20073;-63
2021/08/19 05:19:51;;;;;;;32.17;22.25;;;;;;;15.77;100.00;101183.06;2616140;36;20034;-64
2021/08/19 05:22:19;;;;;;;29.93;20.63;;;;;;;15.77;100.00;101188.47;2615753;31;20022;-64
2021/08/19 05:24:47;;;;;;;31.77;22.48;;;;;;;15.81;100.00;101183.63;2615882;36;20110;-64
2021/08/19 05:27:15;;;;;;;33.30;21.48;;;;;;;15.83;100.00;101191.59;2616948;36;20487;-64
2021/08/19 05:29:43;;;;;;;31.35;22.48;;;;;;;15.90;100.00;101189.91;2616331;31;20085;-63
2021/08/19 05:32:12;;;;;;;31.42;21.27;;;;;;;15.88;100.00;101183.81;2613222;36;20134;-64
2021/08/19 05:34:42;;;;;;;30.20;21.33;;;;;;;15.92;100.00;101190.63;2613920;36;20031;-64
2021/08/19 05:37:11;;;;;;;30.42;20.52;;;;;;;15.91;100.00;101191.63;2615060;36;20174;-64
2021/08/19 05:39:39;;;;;;;26.77;20.05;;;;;;;15.99;100.00;101194.38;2614142;54;20051;-65
2021/08/19 05:42:08;;;;;;;27.35;19.20;;;;;;;16.04;100.00;101200.16;2615695;36;20074;-64
2021/08/19 05:44:37;;;;;;;31.95;20.70;;;;;;;16.01;100.00;101205.09;2614594;36;20061;-64
2021/08/19 05:47:07;;;;;;;29.97;20.40;;;;;;;15.99;100.00;101207.09;2613767;36;20038;-64
2021/08/19 05:49:40;;;;;;;29.30;19.95;;;;;;;15.97;100.00;101199.09;2616971;36;20030;-65
2021/08/19 05:52:12;;;;;;;29.45;20.75;;;;;;;15.93;100.00;101212.16;2615525;36;20042;-64
2021/08/19 05:54:40;;;;;;;31.67;21.33;;;;;;;15.94;100.00;101215.72;2615502;36;20432;-65
2021/08/19 05:57:08;;;;;;;33.88;21.60;;;;;;;15.98;100.00;101219.81;2614487;36;20043;-64
2021/08/19 05:59:37;;;;;;;28.92;20.30;;;;;;;16.01;100.00;101215.94;2614909;36;20670;-65
2021/08/19 06:02:05;;;;;;;31.13;20.50;;;;;;;16.03;100.00;101214.78;2615772;36;20114;-65
2021/08/19 06:04:34;;;;;;;30.05;21.60;;;;;;;16.00;100.00;101215.06;2616181;36;20519;-65
2021/08/19 06:07:02;;;;;;;29.73;21.30;;;;;;;16.01;100.00;101214.06;2617114;31;20508;-65
2021/08/19 06:09:34;;;;;;;31.10;21.60;;;;;;;15.95;100.00;101217.44;2616893;31;20098;-65
2021/08/19 06:12:02;;;;;;;33.78;22.40;;;;;;;16.02;100.00;101218.50;2617474;36;20022;-66
2021/08/19 06:14:30;;;;;;;34.87;23.17;;;;;;;16.11;100.00;101220.22;2616843;36;20062;-64
2021/08/19 06:16:59;;;;;;;31.55;21.63;;;;;;;16.17;100.00;101217.88;2616095;36;20547;-64
2021/08/19 06:19:27;;;;;;;29.85;20.48;;;;;;;16.09;100.00;101226.81;2616257;36;20576;-65
2021/08/19 06:21:55;;;;;;;35.42;21.05;;;;;;;16.08;100.00;101228.69;2618170;31;20519;-64
2021/08/19 06:24:23;;;;;;;31.57;22.23;;;;;;;16.07;100.00;101226.97;2616461;36;20055;-64
2021/08/19 06:26:54;;;;;;;35.90;22.92;;;;;;;16.02;100.00;101223.06;2617052;36;20042;-65
2021/08/19 06:29:22;;;;;;;34.50;22.10;;;;;;;16.05;100.00;101220.88;2616382;36;20408;-65
2021/08/19 06:31:50;;;;;;;35.13;21.67;;;;;;;16.05;100.00;101228.19;2617333;31;20530;-64
2021/08/19 06:34:19;;;;;;;27.00;20.15;;;;;;;16.02;100.00;101226.63;2615582;36;20077;-64
2021/08/19 06:36:47;;;;;;;32.05;20.80;;;;;;;16.08;100.00;101219.72;2616337;31;20066;-70
2021/08/19 06:39:15;;;;;;;30.83;21.43;;;;;;;16.11;100.00;101227.53;2616378;36;20114;-70
2021/08/19 06:41:43;;;;;;;33.35;20.85;;;;;;;16.08;100.00;101222.44;2615046;36;20594;-67
2021/08/19 06:44:14;;;;;;;34.93;21.60;;;;;;;16.06;100.00;101217.16;2616164;31;20094;-68
2021/08/19 06:46:42;;;;;;;35.15;21.38;;;;;;;16.07;100.00;101218.00;2614647;36;20150;-68
2021/08/19 06:49:11;;;;;;;31.58;21.13;;;;;;;16.06;100.00;101213.56;2616679;36;20042;-68
2021/08/19 06:51:39;;;;;;;33.57;21.40;;;;;;;16.14;100.00;101221.75;2617609;36;20543;-70
2021/08/19 06:54:07;;;;;;;40.70;21.27;;;;;;;16.07;100.00;101216.13;2616637;36;20074;-68
2021/08/19 06:56:35;;;;;;;36.60;21.40;;;;;;;16.09;100.00;101219.53;2616474;36;20090;-71
2021/08/19 06:59:03;;;;;;;32.33;21.23;;;;;;;16.13;100.00;101219.22;2616827;31;20077;-67
2021/08/19 07:01:34;;;;;;;34.65;20.98;;;;;;;16.15;100.00;101222.59;2616457;36;20073;-68
2021/08/19 07:04:02;;;;;;;31.25;20.42;;;;;;;16.17;100.00;101215.16;2614537;36;20023;-68
2021/08/19 07:06:31;;;;;;;34.92;22.02;;;;;;;16.23;100.00;101219.94;2615841;36;20531;-71
2021/08/19 07:08:59;;;;;;;28.63;19.77;;;;;;;16.32;100.00;101221.66;2614345;36;20142;-67
2021/08/19 07:11:28;;;;;;;31.65;20.08;;;;;;;16.26;100.00;101220.44;2616498;36;20069;-67
2021/08/19 07:13:56;;;;;;;32.60;20.50;;;;;;;16.34;100.00;101218.75;2616582;36;20026;-70
2021/08/19 07:16:24;;;;;;;28.95;18.77;;;;;;;16.37;100.00;101216.59;2616859;31;20549;-68
2021/08/19 07:18:55;;;;;;;25.50;19.13;;;;;;;16.45;100.00;101219.31;2616466;36;20081;-67
2021/08/19 07:21:23;;;;;;;29.67;19.80;;;;;;;16.44;100.00;101214.91;2613286;36;20034;-67
2021/08/19 07:23:51;;;;;;;27.00;19.05;;;;;;;16.48;100.00;101220.00;2615046;36;20062;-68
2021/08/19 07:26:22;;;;;;;26.73;17.13;;;;;;;16.50;100.00;101210.66;2616425;36;20030;-67
2021/08/19 07:28:50;;;;;;;30.55;17.15;;;;;;;16.50;100.00;101218.81;2616564;31;20026;-66
2021/08/19 07:31:19;;;;;;;27.13;18.67;;;;;;;16.58;100.00;101229.69;2616670;36;20081;-68
2021/08/19 07:33:47;;;;;;;22.33;17.33;;;;;;;16.65;100.00;101227.16;2615184;36;20157;-65
2021/08/19 07:36:18;;;;;;;26.52;17.80;;;;;;;16.66;100.00;101220.72;2616237;36;20346;-68
2021/08/19 07:38:46;;;;;;;29.10;18.25;;;;;;;16.77;100.00;101228.53;2616731;36;20031;-67
2021/08/19 07:41:14;;;;;;;25.38;17.13;;;;;;;16.76;100.00;101232.28;2617619;31;20522;-66
2021/08/19 07:43:43;;;;;;;28.00;17.40;;;;;;;16.82;100.00;101226.16;2615571;36;20147;-67
2021/08/19 07:46:11;;;;;;;26.13;17.50;;;;;;;16.86;100.00;101231.25;2616128;36;20155;-69
2021/08/19 07:48:40;;;;;;;25.30;16.60;;;;;;;16.96;100.00;101226.53;2615495;36;20154;-66
2021/08/19 07:51:15;;;;;;;27.90;17.55;;;;;;;16.94;100.00;101234.88;2614872;54;20196;31
2021/08/19 07:53:46;;;;;;;23.15;16.38;;;;;;;16.94;100.00;101231.31;2616617;36;20029;-66
2021/08/19 07:56:15;;;;;;;21.88;15.95;;;;;;;16.91;100.00;101234.38;2614021;36;20046;-67
2021/08/19 07:58:44;;;;;;;;;;;;;;;16.87;100.00;101238.41;2615568;36;20018;-66
2021/08/19 08:01:12;;;;;;;22.27;16.20;;;;;;;16.82;100.00;101231.59;2616712;36;19954;-69
2021/08/19 08:03:40;;;;;;;22.53;16.40;;;;;;;16.83;100.00;101243.34;2617904;31;20539;-66
2021/08/19 08:06:08;;;;;;;23.30;15.85;;;;;;;16.87;100.00;101244.75;2615680;36;20638;-67
2021/08/19 08:08:36;;;;;;;19.63;15.23;;;;;;;16.84;100.00;101246.91;2616091;36;20031;-67
2021/08/19 08:11:07;;;;;;;23.53;16.43;;;;;;;16.80;100.00;101243.69;2615419;36;20026;-68
2021/08/19 08:13:36;;;;;;;21.83;15.48;;;;;;;16.86;100.00;101243.00;2615927;36;20126;-67
2021/08/19 08:16:04;;;;;;;28.40;17.58;;;;;;;16.96;100.00;101248.28;2616450;31;20511;-66
2021/08/19 08:18:32;;;;;;;22.48;15.80;;;;;;;16.88;100.00;101251.03;2616117;36;20038;-66
2021/08/19 08:21:02;;;;;;;24.73;17.15;;;;;;;16.93;100.00;101254.06;2614933;36;20066;-68
2021/08/19 08:23:33;;;;;;;20.55;15.10;;;;;;;16.99;100.00;101250.69;2615068;36;20030;-68
2021/08/19 08:28:51;;;;;;;25.27;16.52;;;;;;;16.97;100.00;101256.31;2614545;36;20026;-66
2021/08/19 08:31:19;;;;;;;22.60;15.00;;;;;;;16.92;100.00;101260.53;2616195;36;20038;-66
2021/08/19 08:33:47;;;;;;;26.35;16.85;;;;;;;16.93;100.00;101252.22;2616504;36;20125;-67
2021/08/19 08:36:16;;;;;;;26.13;16.77;;;;;;;16.97;100.00;101256.31;2615574;31;20081;-67
2021/08/19 08:38:44;;;;;;;22.23;15.07;;;;;;;17.13;100.00;101257.31;2615885;36;20081;-67
2021/08/19 08:41:13;;;;;;;18.63;14.68;;;;;;;17.23;100.00;101251.72;2615648;36;20037;-67
2021/08/19 08:43:41;;;;;;;26.50;16.75;;;;;;;17.12;100.00;101253.75;2614211;36;20490;-66
2021/08/19 08:46:13;;;;;;;24.00;15.50;;;;;;;17.12;100.00;101258.34;2614330;36;20050;-66
2021/08/19 08:48:43;;;;;;;25.33;15.20;;;;;;;17.17;100.00;101248.66;2613498;36;20052;-68
2021/08/19 08:51:11;;;;;;;23.88;15.48;;;;;;;17.26;100.00;101254.94;2615307;31;20034;-68
2021/08/19 08:53:42;;;;;;;16.77;11.93;;;;;;;17.24;100.00;101257.00;2616896;36;20539;-66
2021/08/19 08:56:11;;;;;;;21.05;13.88;;;;;;;17.25;100.00;101258.66;2613006;31;20030;-67
2021/08/19 08:58:39;;;;;;;22.63;15.37;;;;;;;17.29;100.00;101249.16;2615221;31;20035;-67
2021/08/19 09:01:07;;;;;;;18.30;13.73;;;;;;;17.20;100.00;101255.63;2615755;36;20022;-67
2021/08/19 09:03:38;;;;;;;21.63;13.80;;;;;;;17.33;100.00;101257.84;2616931;36;20146;-67
2021/08/19 09:06:06;;;;;;;19.25;13.57;;;;;;;17.41;100.00;101260.53;2616919;36;20110;-67
2021/08/19 09:08:34;;;;;;;19.77;14.35;;;;;;;17.43;100.00;101268.53;2616918;36;20030;-70
2021/08/19 09:11:04;;;;;;;18.98;14.30;;;;;;;17.42;100.00;101270.41;2617189;36;20058;-69
2021/08/19 09:13:33;;;;;;;21.27;14.30;;;;;;;17.52;100.00;101267.53;2617210;36;20082;-69
2021/08/19 09:16:15;;;;;;;;;;;;;;;17.64;100.00;101262.56;2616881;36;20129;-68
2021/08/19 09:18:48;;;;;;;20.42;14.20;;;;;;;17.63;100.00;101260.88;2617569;36;20411;-67
2021/08/19 09:21:22;;;;;;;19.63;13.45;;;;;;;17.68;100.00;101264.78;2617763;36;20419;-67
2021/08/19 09:24:12;;;;;;;23.00;13.73;;;;;;;17.73;100.00;101269.69;2614294;54;20097;-67
2021/08/19 09:26:41;;;;;;;18.85;12.07;;;;;;;17.88;100.00;101268.97;2617509;36;20485;-67
2021/08/19 09:29:31;;;;;;;22.92;13.40;;;;;;;17.74;100.00;101271.41;2617027;31;20100;-67
2021/08/19 09:32:12;;;;;;;20.25;14.13;;;;;;;17.65;100.00;101275.13;2616978;31;20156;-67
2021/08/19 09:34:45;;;;;;;19.08;13.10;;;;;;;17.67;100.00;101278.56;2617095;36;20075;-69
2021/08/19 09:37:15;;;;;;;21.95;13.70;;;;;;;17.67;100.00;101279.41;2617096;36;20051;-68
2021/08/19 09:39:45;;;;;;;18.48;14.18;;;;;;;17.64;100.00;101278.91;2617781;31;20546;-68
2021/08/19 09:42:14;;;;;;;17.20;11.82;;;;;;;17.63;100.00;101283.47;2617723;31;20076;-67
2021/08/19 09:44:47;;;;;;;20.45;14.00;;;;;;;17.56;100.00;101278.91;2617856;36;20524;-70
2021/08/19 09:47:31;;;;;;;19.08;13.75;;;;;;;17.62;100.00;101283.66;2617409;36;20110;-66
2021/08/19 09:50:17;;;;;;;22.20;13.80;;;;;;;17.68;100.00;101283.81;2617952;36;20030;-67
2021/08/19 09:52:47;;;;;;;21.45;14.45;;;;;;;17.59;100.00;101281.28;2618019;36;20026;-68
2021/08/19 09:55:23;;;;;;;22.80;14.13;;;;;;;17.65;100.00;101283.31;2618065;36;20427;-67
2021/08/19 09:57:51;;;;;;;20.33;13.05;;;;;;;17.68;100.00;101274.78;2617718;36;20117;-69
2021/08/19 10:00:27;;;;;;;23.17;14.50;;;;;;;17.68;100.00;101280.22;2617536;36;20026;-67
2021/08/19 10:02:56;;;;;;;20.38;14.13;;;;;;;17.60;100.00;101278.38;2618019;31;20027;-67
2021/08/19 10:05:28;;;;;;;19.90;13.38;;;;;;;17.60;100.00;101274.81;2617675;36;20063;-67
2021/08/19 10:07:56;;;;;;;24.63;14.23;;;;;;;17.62;100.00;101275.47;2617902;36;20118;-67
2021/08/19 10:10:24;;;;;;;20.83;13.45;;;;;;;17.82;100.00;101268.63;2618476;31;20602;-67
2021/08/19 10:12:54;;;;;;;19.40;12.77;;;;;;;17.83;100.00;101270.34;2620023;36;20069;-70
2021/08/19 10:15:23;;;;;;;23.17;14.00;;;;;;;17.86;100.00;101261.81;2617603;36;20030;-69
2021/08/19 10:17:54;;;;;;;;;;;;;;;17.84;100.00;101269.34;2618048;36;20030;-66
2021/08/19 10:20:30;;;;;;;19.95;13.30;;;;;;;17.74;100.00;101273.25;2617569;36;19966;-66
2021/08/19 10:23:00;;;;;;;22.27;13.32;;;;;;;17.78;100.00;101275.44;2617765;36;20582;-66
2021/08/19 10:25:29;;;;;;;19.65;12.38;;;;;;;17.89;100.00;101273.38;2618522;31;20539;-67
2021/08/19 10:28:16;;;;;;;17.38;12.60;;;;;;;17.93;100.00;101275.66;2617557;36;20026;-69
2021/08/19 10:30:49;;;;;;;19.70;12.60;;;;;;;18.02;100.00;101271.00;2617806;36;20073;-68
2021/08/19 10:33:45;;;;;;;18.33;11.77;;;;;;;18.00;100.00;101276.63;2617649;36;20065;-67
2021/08/19 10:36:45;;;;;;;19.17;13.18;;;;;;;18.16;100.00;101283.06;2618304;36;20027;-68
2021/08/19 10:39:32;;;;;;;19.75;12.55;;;;;;;18.03;100.00;101280.88;2617581;36;20031;-67
2021/08/19 10:42:01;;;;;;;20.02;13.05;;;;;;;17.91;100.00;101276.84;2617733;36;20022;-67
2021/08/19 10:44:30;;;;;;;;;;;;;;;17.99;100.00;101288.56;2617840;36;20026;-67
2021/08/19 10:46:59;;;;;;;21.00;14.38;;;;;;;17.88;100.00;101290.75;2617291;36;19954;-67
2021/08/19 10:49:36;;;;;;;22.85;13.88;;;;;;;17.74;100.00;101289.59;2617671;36;20153;-68
2021/08/19 10:52:30;;;;;;;21.70;12.85;;;;;;;17.61;100.00;101284.69;2616952;31;20030;-67
2021/08/19 10:55:19;;;;;;;21.38;14.10;;;;;;;17.50;100.00;101294.91;2617475;36;20037;-67
2021/08/19 10:57:58;;;;;;;24.58;13.63;;;;;;;17.51;100.00;101302.03;2617697;36;20489;-68
2021/08/19 11:00:40;;;;;;;24.55;14.48;;;;;;;17.60;100.00;101299.31;2617134;36;20066;-67
2021/08/19 11:03:10;;;;;;;22.30;13.98;;;;;;;17.75;100.00;101302.19;2617129;36;20038;-67
2021/08/19 11:05:59;;;;;;;22.70;14.02;;;;;;;17.76;100.00;101299.28;2617864;36;20446;-67
2021/08/19 11:08:45;;;;;;;21.48;13.77;;;;;;;17.85;100.00;101289.22;2617020;36;20546;-67
2021/08/19 11:13:48;;;;;;;22.63;14.15;;;;;;;18.15;100.00;101290.38;2617276;46;20037;-68
2021/08/19 11:16:16;;;;;;;26.58;14.10;;;;;;;18.27;100.00;101285.41;2617282;36;20034;-68
2021/08/19 11:18:45;;;;;;;18.97;12.93;;;;;;;18.38;100.00;101289.59;2617520;36;20105;-68
2021/08/19 11:21:13;;;;;;;19.42;13.30;;;;;;;18.58;100.00;101280.97;2617607;36;20034;-67
2021/08/19 11:23:43;;;;;;;16.57;12.60;;;;;;;18.44;100.00;101291.63;2617594;31;20431;-67
2021/08/19 11:26:18;;;;;;;21.60;13.27;;;;;;;18.27;100.00;101296.31;2617431;36;20820;-68
2021/08/19 11:28:51;;;;;;;23.75;13.45;;;;;;;18.12;100.00;101290.72;2617610;36;20542;-69